Tampa, FL (33615)

6:07 PM EDT on July 25, 2016 (GMT -0400)
Bay Pointe Waterfront Area | | Change Station

Elev 9 ft 27.98 °N, 82.58 °W | Updated 3 seconds ago

Mostly Cloudy
Mostly Cloudy
89.5 °F
Feels Like 106 °F
N
1.0
Wind Variable Wind from WNW
Gusts 3.0 mph

Today
High -- | Low -- °F
--% Chance of Precip.
Yesterday
High -- | Low -- °F
Precip. -- in
Pressure 30.01 in
Visibility 10.0 miles
Clouds Few 4500 ft
Mostly Cloudy 9500 ft
Heat Index 106 °F
Dew Point 80 °F
Humidity 73%
Rainfall 0.00 in
Snow Depth Not available.
6:49 AM 8:24 PM
Waning Gibbous, 62% visible
METAR KTPA 252153Z 20012KT 10SM FEW045TCU BKN095 31/24 A3001 RMK AO2 RAE25 SLP162 CB DSNT SE AND SW-NW TCU S-N P0000 T03060244
Pressure 30.01 in
Visibility 10.0 miles
Clouds Few 4500 ft
Mostly Cloudy 9500 ft
Heat Index 106 °F
Dew Point 80 °F
Humidity 73%
Rainfall 0.00 in
Snow Depth Not available.
6:49 AM 8:24 PM
Waning Gibbous, 62% visible
METAR KTPA 252153Z 20012KT 10SM FEW045TCU BKN095 31/24 A3001 RMK AO2 RAE25 SLP162 CB DSNT SE AND SW-NW TCU S-N P0000 T03060244
Record highs are possible for parts of the Northeast Monday and Tuesday, as parts of the central U.S. take a little breather from the worst of summer's dog day heat.

Expansive high pressure in the upper atmosphere will focus on parts of the East and West this week, sending heat indices well into the triple digits from the Mid-Atlantic states into the South.

10-Day Weather Forecast

Almanac

Astronomy

Jul. 25, 2016 Rise Set
Actual Time
Civil Twilight
Nautical Twilight
Astronomical Twilight
Moon
Length of Visible Light
Length of Day
Tomorrow will be .
, % of the Moon is Illuminated

Today's Extremes

State Highs State Lows

Community

WunderPhotos

Upload Photos

1,927,426 photos uploaded!

WunderBlog® & News

Nearby

Air Quality

  Air Quality AQ Index Pollutant
Not available.

Snow Depth

Station Depth Elevation

Earthquake Activity

City Distance Mag. Time & Date
Minimum magnitude displayed is 2.5.

Coastal Water Temperatures

Place Temperature

Stations

Nearby Weather Stations

Station Location Temp. Windchill Dew Point Humidity Wind Precip. Elev Updated Type
                   

Watches & Warnings

There are currently no watches in effect.